This is the latest recevied weather packets stored in our database for station/object VA7NEZ. If no packets are shown the sender has not sent any weather packets the latest 10 day(s).
| Time | Temp. | Humidity | Pressure | Rain* | Wind** | Luminosity | Snow |
|---|---|---|---|---|---|---|---|
| 1777738986 | 15° C | 54% | 1020.2 hPa | 0 mm | - | - | - |
| 1777738476 | 15° C | 54% | 1020.2 hPa | 0 mm | - | - | - |
| 1777737976 | 15° C | 54% | 1020.3 hPa | 0 mm | - | - | - |
| 1777737386 | 14.44° C | 55% | 1020.2 hPa | 0 mm | - | - | - |
| 1777736899 | 13.89° C | 59% | 1020.2 hPa | 0 mm | - | - | - |
| 1777736336 | 13.89° C | 58% | 1020.3 hPa | 0 mm | - | - | - |
| 1777735771 | 0° C | 100% | 1020.2 hPa | 0 mm | - | - | - |
| 1777735176 | 13.33° C | 64% | 1020.2 hPa | 0 mm | - | - | - |
| 1777734691 | 13.33° C | 64% | 1020.2 hPa | 0 mm | - | - | - |
| 1777734206 | 13.33° C | 60% | 1020.2 hPa | 0 mm | - | - | - |
| 1777733716 | 13.33° C | 62% | 1020.1 hPa | 0 mm | - | - | - |
| 1777733151 | 12.78° C | 62% | 1020.1 hPa | 0 mm | - | - | - |
| 1777732012 | 11.67° C | 67% | 1019.8 hPa | 0 mm | - | - | - |
| 1777731486 | 0° C | 100% | 1019.8 hPa | 0 mm | - | - | - |
| 1777730953 | 10.56° C | 71% | 1019.9 hPa | 0 mm | - | - | - |
| 1777730456 | 10° C | 73% | 1019.8 hPa | 0 mm | - | - | - |
| 1777729926 | 9.44° C | 72% | 1019.9 hPa | 0 mm | - | - | - |
| 1777729346 | 8.89° C | 74% | 1019.8 hPa | 0 mm | - | - | - |
| 1777728786 | 8.89° C | 74% | 1019.6 hPa | 0 mm | - | - | - |
| 1777728288 | 8.33° C | 74% | 1019.4 hPa | 0 mm | - | - | - |
| 1777727747 | 8.33° C | 76% | 1019.4 hPa | 0 mm | - | - | - |
| 1777727156 | 8.33° C | 76% | 1019.2 hPa | 0 mm | - | - | - |
| 1777726611 | 7.78° C | 76% | 1019.2 hPa | 0 mm | - | - | - |
| 1777726121 | 7.78° C | 71% | 1019.2 hPa | 0 mm | - | - | - |
| 1777725552 | 8.33° C | 72% | 1019 hPa | 0 mm | - | - | - |
* Rain latest hour (hover to see other rain measurements)
** Current wind speed in m/s (hover to see current wind gust speed)